Terminal Aerodrome Forecast
Issued by NWS

Current Version | Previous Version | Text Only | Print | Product List | Glossary On
Versions: 1 2 3 4 5 6 7 8 9 10 11 12 13 14 15 16 17 18 19 20 21 22 23 24 25
000
FTUS43 KGRR 281100
TAFBTL
TAF
KBTL 281129Z 2812/2912 06003KT P6SM BKN011
     FM281400 09008KT P6SM SCT150 BKN250
     FM290800 15008KT P6SM OVC090=

USA.gov is the U.S. government's official web portal to all federal, state and local government web resources and services.